sensor_id;sensor_type;location;lat;lon;timestamp;P1;durP1;ratioP1;P2;durP2;ratioP2
56136;SDS011;42008;52.934;5.884;2023-02-15T00:01:41;542.17;;;54.23;;
56136;SDS011;42008;52.934;5.884;2023-02-15T00:04:08;471.83;;;64.03;;
56136;SDS011;42008;52.934;5.884;2023-02-15T00:06:34;1063.27;;;98.00;;
56136;SDS011;42008;52.934;5.884;2023-02-15T00:09:01;128.43;;;37.20;;
56136;SDS011;42008;52.934;5.884;2023-02-15T00:11:27;329.37;;;54.87;;
56136;SDS011;42008;52.934;5.884;2023-02-15T00:14:09;693.37;;;90.67;;
56136;SDS011;42008;52.934;5.884;2023-02-15T00:16:36;1265.13;;;110.40;;
56136;SDS011;42008;52.934;5.884;2023-02-15T00:19:03;1070.87;;;101.83;;
56136;SDS011;42008;52.934;5.884;2023-02-15T00:21:32;327.67;;;45.47;;
56136;SDS011;42008;52.934;5.884;2023-02-15T00:24:00;388.30;;;46.90;;
56136;SDS011;42008;52.934;5.884;2023-02-15T00:26:27;279.53;;;40.63;;
56136;SDS011;42008;52.934;5.884;2023-02-15T00:28:53;236.53;;;36.93;;
56136;SDS011;42008;52.934;5.884;2023-02-15T00:31:19;689.00;;;64.37;;
56136;SDS011;42008;52.934;5.884;2023-02-15T00:33:45;1030.00;;;76.97;;
56136;SDS011;42008;52.934;5.884;2023-02-15T00:36:11;1023.43;;;68.73;;
56136;SDS011;42008;52.934;5.884;2023-02-15T00:38:38;212.37;;;38.37;;
56136;SDS011;42008;52.934;5.884;2023-02-15T00:41:05;343.13;;;45.20;;
56136;SDS011;42008;52.934;5.884;2023-02-15T00:43:32;146.40;;;35.63;;
56136;SDS011;42008;52.934;5.884;2023-02-15T00:45:58;52.07;;;36.33;;
56136;SDS011;42008;52.934;5.884;2023-02-15T00:48:25;167.67;;;55.83;;
56136;SDS011;42008;52.934;5.884;2023-02-15T00:50:51;211.30;;;63.87;;
56136;SDS011;42008;52.934;5.884;2023-02-15T00:53:19;192.73;;;60.27;;
56136;SDS011;42008;52.934;5.884;2023-02-15T00:55:45;621.57;;;106.97;;
56136;SDS011;42008;52.934;5.884;2023-02-15T00:58:11;298.87;;;62.33;;
56136;SDS011;42008;52.934;5.884;2023-02-15T01:00:38;443.70;;;72.30;;
56136;SDS011;42008;52.934;5.884;2023-02-15T01:03:04;1603.27;;;175.37;;
56136;SDS011;42008;52.934;5.884;2023-02-15T01:05:30;227.03;;;52.20;;
56136;SDS011;42008;52.934;5.884;2023-02-15T01:07:57;903.07;;;91.70;;
56136;SDS011;42008;52.934;5.884;2023-02-15T01:10:23;1723.57;;;154.63;;
56136;SDS011;42008;52.934;5.884;2023-02-15T01:12:52;1188.70;;;113.50;;
56136;SDS011;42008;52.934;5.884;2023-02-15T01:15:19;815.90;;;73.20;;
56136;SDS011;42008;52.934;5.884;2023-02-15T01:17:45;765.70;;;71.63;;
56136;SDS011;42008;52.934;5.884;2023-02-15T01:20:16;1999.90;;;206.73;;
56136;SDS011;42008;52.934;5.884;2023-02-15T01:22:42;1629.97;;;133.47;;
56136;SDS011;42008;52.934;5.884;2023-02-15T01:25:08;80.07;;;36.93;;
56136;SDS011;42008;52.934;5.884;2023-02-15T01:27:34;1222.70;;;102.13;;
56136;SDS011;42008;52.934;5.884;2023-02-15T01:29:59;159.70;;;39.33;;
56136;SDS011;42008;52.934;5.884;2023-02-15T01:32:25;597.83;;;60.10;;
56136;SDS011;42008;52.934;5.884;2023-02-15T01:34:51;193.73;;;43.27;;
56136;SDS011;42008;52.934;5.884;2023-02-15T01:37:17;255.37;;;55.00;;
56136;SDS011;42008;52.934;5.884;2023-02-15T01:39:43;72.27;;;42.90;;
56136;SDS011;42008;52.934;5.884;2023-02-15T01:42:12;115.53;;;44.73;;
56136;SDS011;42008;52.934;5.884;2023-02-15T01:47:20;375.13;;;69.63;;
56136;SDS011;42008;52.934;5.884;2023-02-15T01:50:03;428.60;;;80.90;;
56136;SDS011;42008;52.934;5.884;2023-02-15T01:52:30;185.03;;;56.00;;
56136;SDS011;42008;52.934;5.884;2023-02-15T01:54:55;321.20;;;62.70;;
56136;SDS011;42008;52.934;5.884;2023-02-15T01:57:22;1116.87;;;105.70;;
56136;SDS011;42008;52.934;5.884;2023-02-15T01:59:56;162.90;;;40.13;;
56136;SDS011;42008;52.934;5.884;2023-02-15T02:02:24;1575.20;;;140.90;;
56136;SDS011;42008;52.934;5.884;2023-02-15T02:04:53;714.00;;;87.87;;
56136;SDS011;42008;52.934;5.884;2023-02-15T02:07:24;932.70;;;111.73;;
56136;SDS011;42008;52.934;5.884;2023-02-15T02:09:53;422.10;;;73.40;;
56136;SDS011;42008;52.934;5.884;2023-02-15T02:12:19;453.17;;;54.93;;
56136;SDS011;42008;52.934;5.884;2023-02-15T02:14:47;226.77;;;56.57;;
56136;SDS011;42008;52.934;5.884;2023-02-15T02:19:54;285.03;;;50.47;;
56136;SDS011;42008;52.934;5.884;2023-02-15T02:22:46;451.70;;;51.67;;
56136;SDS011;42008;52.934;5.884;2023-02-15T02:34:32;314.50;;;49.23;;
56136;SDS011;42008;52.934;5.884;2023-02-15T02:37:23;1522.80;;;129.10;;
56136;SDS011;42008;52.934;5.884;2023-02-15T02:45:28;215.50;;;49.88;;
56136;SDS011;42008;52.934;5.884;2023-02-15T02:48:09;328.45;;;53.88;;
56136;SDS011;42008;52.934;5.884;2023-02-15T02:50:40;222.32;;;44.22;;
56136;SDS011;42008;52.934;5.884;2023-02-15T02:53:06;534.63;;;60.40;;
56136;SDS011;42008;52.934;5.884;2023-02-15T02:55:39;502.07;;;61.23;;
56136;SDS011;42008;52.934;5.884;2023-02-15T03:03:20;609.50;;;55.83;;
56136;SDS011;42008;52.934;5.884;2023-02-15T03:05:53;477.03;;;52.50;;
56136;SDS011;42008;52.934;5.884;2023-02-15T03:08:20;1881.77;;;140.43;;
56136;SDS011;42008;52.934;5.884;2023-02-15T03:10:48;154.70;;;40.37;;
56136;SDS011;42008;52.934;5.884;2023-02-15T03:13:18;145.83;;;44.40;;
56136;SDS011;42008;52.934;5.884;2023-02-15T03:15:43;270.90;;;47.97;;
56136;SDS011;42008;52.934;5.884;2023-02-15T03:18:30;120.53;;;43.07;;
56136;SDS011;42008;52.934;5.884;2023-02-15T03:21:00;61.70;;;35.85;;
56136;SDS011;42008;52.934;5.884;2023-02-15T03:23:27;737.00;;;69.93;;
56136;SDS011;42008;52.934;5.884;2023-02-15T03:26:00;196.23;;;48.57;;
56136;SDS011;42008;52.934;5.884;2023-02-15T03:28:37;103.53;;;53.83;;
56136;SDS011;42008;52.934;5.884;2023-02-15T03:31:07;61.97;;;41.43;;
56136;SDS011;42008;52.934;5.884;2023-02-15T03:33:37;104.50;;;47.00;;
56136;SDS011;42008;52.934;5.884;2023-02-15T03:38:49;1999.90;;;161.03;;
56136;SDS011;42008;52.934;5.884;2023-02-15T03:41:25;1522.87;;;108.83;;
56136;SDS011;42008;52.934;5.884;2023-02-15T03:43:59;865.90;;;80.93;;
56136;SDS011;42008;52.934;5.884;2023-02-15T03:46:40;1412.33;;;111.97;;
56136;SDS011;42008;52.934;5.884;2023-02-15T03:49:20;1888.33;;;134.80;;
56136;SDS011;42008;52.934;5.884;2023-02-15T03:51:50;1999.90;;;174.37;;
56136;SDS011;42008;52.934;5.884;2023-02-15T03:54:24;1350.67;;;107.97;;
56136;SDS011;42008;52.934;5.884;2023-02-15T03:57:07;1999.90;;;161.03;;
56136;SDS011;42008;52.934;5.884;2023-02-15T04:00:09;1368.70;;;108.60;;
56136;SDS011;42008;52.934;5.884;2023-02-15T04:03:07;969.08;;;82.80;;
56136;SDS011;42008;52.934;5.884;2023-02-15T04:05:40;162.53;;;44.77;;
56136;SDS011;42008;52.934;5.884;2023-02-15T04:08:07;539.37;;;62.43;;
56136;SDS011;42008;52.934;5.884;2023-02-15T04:10:34;173.43;;;45.70;;
56136;SDS011;42008;52.934;5.884;2023-02-15T04:13:19;491.57;;;71.07;;
56136;SDS011;42008;52.934;5.884;2023-02-15T04:15:45;632.43;;;86.77;;
56136;SDS011;42008;52.934;5.884;2023-02-15T04:18:29;724.43;;;99.00;;
56136;SDS011;42008;52.934;5.884;2023-02-15T04:21:15;467.30;;;71.43;;
56136;SDS011;42008;52.934;5.884;2023-02-15T04:24:00;605.47;;;96.13;;
56136;SDS011;42008;52.934;5.884;2023-02-15T04:26:44;1102.30;;;126.60;;
56136;SDS011;42008;52.934;5.884;2023-02-15T04:29:10;478.77;;;77.70;;
56136;SDS011;42008;52.934;5.884;2023-02-15T04:31:36;1870.90;;;187.47;;
56136;SDS011;42008;52.934;5.884;2023-02-15T04:34:01;657.97;;;91.90;;
56136;SDS011;42008;52.934;5.884;2023-02-15T04:36:27;648.50;;;91.83;;
56136;SDS011;42008;52.934;5.884;2023-02-15T04:38:53;1256.33;;;132.47;;
56136;SDS011;42008;52.934;5.884;2023-02-15T04:41:19;718.63;;;100.13;;
56136;SDS011;42008;52.934;5.884;2023-02-15T04:43:44;1003.53;;;124.57;;
56136;SDS011;42008;52.934;5.884;2023-02-15T04:46:10;815.33;;;106.93;;
56136;SDS011;42008;52.934;5.884;2023-02-15T04:48:35;698.37;;;95.57;;
56136;SDS011;42008;52.934;5.884;2023-02-15T04:51:04;987.10;;;123.70;;
56136;SDS011;42008;52.934;5.884;2023-02-15T04:53:31;704.47;;;100.27;;
56136;SDS011;42008;52.934;5.884;2023-02-15T04:55:57;381.03;;;74.03;;
56136;SDS011;42008;52.934;5.884;2023-02-15T04:58:23;521.77;;;82.77;;
56136;SDS011;42008;52.934;5.884;2023-02-15T05:00:48;618.37;;;100.93;;
56136;SDS011;42008;52.934;5.884;2023-02-15T05:03:14;422.10;;;73.90;;
56136;SDS011;42008;52.934;5.884;2023-02-15T05:05:39;663.13;;;92.23;;
56136;SDS011;42008;52.934;5.884;2023-02-15T05:08:05;352.27;;;74.47;;
56136;SDS011;42008;52.934;5.884;2023-02-15T05:10:31;345.23;;;71.57;;
56136;SDS011;42008;52.934;5.884;2023-02-15T05:12:56;453.83;;;79.67;;
56136;SDS011;42008;52.934;5.884;2023-02-15T05:15:22;552.90;;;84.70;;
56136;SDS011;42008;52.934;5.884;2023-02-15T05:17:47;552.67;;;86.80;;
56136;SDS011;42008;52.934;5.884;2023-02-15T05:20:13;826.63;;;108.30;;
56136;SDS011;42008;52.934;5.884;2023-02-15T05:22:38;1053.63;;;131.20;;
56136;SDS011;42008;52.934;5.884;2023-02-15T05:25:05;593.57;;;90.83;;
56136;SDS011;42008;52.934;5.884;2023-02-15T05:27:50;1130.60;;;130.70;;
56136;SDS011;42008;52.934;5.884;2023-02-15T05:30:34;957.70;;;116.97;;
56136;SDS011;42008;52.934;5.884;2023-02-15T05:32:59;693.70;;;98.00;;
56136;SDS011;42008;52.934;5.884;2023-02-15T05:35:25;540.93;;;86.33;;
56136;SDS011;42008;52.934;5.884;2023-02-15T05:37:50;1042.53;;;122.40;;
56136;SDS011;42008;52.934;5.884;2023-02-15T05:40:16;964.30;;;121.67;;
56136;SDS011;42008;52.934;5.884;2023-02-15T05:42:42;734.87;;;101.93;;
56136;SDS011;42008;52.934;5.884;2023-02-15T05:45:07;795.53;;;111.20;;
56136;SDS011;42008;52.934;5.884;2023-02-15T05:47:33;627.27;;;95.77;;
56136;SDS011;42008;52.934;5.884;2023-02-15T05:49:59;621.17;;;90.63;;
56136;SDS011;42008;52.934;5.884;2023-02-15T05:52:24;616.93;;;92.03;;
56136;SDS011;42008;52.934;5.884;2023-02-15T05:54:50;712.67;;;110.57;;
56136;SDS011;42008;52.934;5.884;2023-02-15T05:57:15;932.70;;;123.27;;
56136;SDS011;42008;52.934;5.884;2023-02-15T05:59:41;690.97;;;99.67;;
56136;SDS011;42008;52.934;5.884;2023-02-15T06:02:06;663.70;;;99.97;;
56136;SDS011;42008;52.934;5.884;2023-02-15T06:04:32;901.03;;;120.87;;
56136;SDS011;42008;52.934;5.884;2023-02-15T06:06:57;525.00;;;88.77;;
56136;SDS011;42008;52.934;5.884;2023-02-15T06:09:23;620.67;;;93.30;;
56136;SDS011;42008;52.934;5.884;2023-02-15T06:11:49;795.50;;;110.07;;
56136;SDS011;42008;52.934;5.884;2023-02-15T06:14:14;434.67;;;79.13;;
56136;SDS011;42008;52.934;5.884;2023-02-15T06:16:40;658.13;;;96.33;;
56136;SDS011;42008;52.934;5.884;2023-02-15T06:19:05;872.63;;;116.10;;
56136;SDS011;42008;52.934;5.884;2023-02-15T06:21:31;865.23;;;111.53;;
56136;SDS011;42008;52.934;5.884;2023-02-15T06:23:57;916.17;;;112.17;;
56136;SDS011;42008;52.934;5.884;2023-02-15T06:26:23;831.47;;;115.30;;
56136;SDS011;42008;52.934;5.884;2023-02-15T06:28:48;621.70;;;97.70;;
56136;SDS011;42008;52.934;5.884;2023-02-15T06:31:14;455.47;;;83.17;;
56136;SDS011;42008;52.934;5.884;2023-02-15T06:33:40;540.27;;;94.30;;
56136;SDS011;42008;52.934;5.884;2023-02-15T06:36:05;457.63;;;87.00;;
56136;SDS011;42008;52.934;5.884;2023-02-15T06:38:31;440.73;;;83.20;;
56136;SDS011;42008;52.934;5.884;2023-02-15T06:40:57;403.33;;;77.47;;
56136;SDS011;42008;52.934;5.884;2023-02-15T06:43:22;499.23;;;96.83;;
56136;SDS011;42008;52.934;5.884;2023-02-15T06:45:48;480.00;;;84.20;;
56136;SDS011;42008;52.934;5.884;2023-02-15T06:48:14;605.33;;;96.63;;
56136;SDS011;42008;52.934;5.884;2023-02-15T06:50:40;779.43;;;113.57;;
56136;SDS011;42008;52.934;5.884;2023-02-15T06:53:05;510.63;;;90.37;;
56136;SDS011;42008;52.934;5.884;2023-02-15T06:55:31;373.97;;;83.40;;
56136;SDS011;42008;52.934;5.884;2023-02-15T06:57:56;505.77;;;93.50;;
56136;SDS011;42008;52.934;5.884;2023-02-15T07:00:22;372.00;;;86.83;;
56136;SDS011;42008;52.934;5.884;2023-02-15T07:02:52;219.03;;;81.70;;
56136;SDS011;42008;52.934;5.884;2023-02-15T07:05:20;202.82;;;80.35;;
56136;SDS011;42008;52.934;5.884;2023-02-15T07:07:46;208.10;;;81.43;;
56136;SDS011;42008;52.934;5.884;2023-02-15T07:10:12;219.13;;;81.73;;
56136;SDS011;42008;52.934;5.884;2023-02-15T07:12:38;190.80;;;76.73;;
56136;SDS011;42008;52.934;5.884;2023-02-15T07:15:07;200.40;;;81.43;;
56136;SDS011;42008;52.934;5.884;2023-02-15T07:17:34;180.27;;;77.33;;
56136;SDS011;42008;52.934;5.884;2023-02-15T07:20:08;194.27;;;81.67;;
56136;SDS011;42008;52.934;5.884;2023-02-15T07:22:39;178.97;;;77.47;;
56136;SDS011;42008;52.934;5.884;2023-02-15T07:25:06;179.00;;;79.87;;
56136;SDS011;42008;52.934;5.884;2023-02-15T07:27:33;184.03;;;77.57;;
56136;SDS011;42008;52.934;5.884;2023-02-15T07:29:59;169.83;;;75.83;;
56136;SDS011;42008;52.934;5.884;2023-02-15T07:32:28;164.10;;;75.20;;
56136;SDS011;42008;52.934;5.884;2023-02-15T07:34:55;167.97;;;75.23;;
56136;SDS011;42008;52.934;5.884;2023-02-15T07:37:21;168.40;;;74.60;;
56136;SDS011;42008;52.934;5.884;2023-02-15T07:39:47;165.17;;;75.53;;
56136;SDS011;42008;52.934;5.884;2023-02-15T07:42:13;177.93;;;77.60;;
56136;SDS011;42008;52.934;5.884;2023-02-15T07:44:38;172.37;;;78.53;;
56136;SDS011;42008;52.934;5.884;2023-02-15T07:47:04;204.97;;;85.43;;
56136;SDS011;42008;52.934;5.884;2023-02-15T07:49:29;179.57;;;81.50;;
56136;SDS011;42008;52.934;5.884;2023-02-15T07:51:55;181.00;;;84.43;;
56136;SDS011;42008;52.934;5.884;2023-02-15T07:54:21;184.37;;;83.07;;
56136;SDS011;42008;52.934;5.884;2023-02-15T07:56:46;179.50;;;84.50;;
56136;SDS011;42008;52.934;5.884;2023-02-15T07:59:12;189.67;;;88.03;;
56136;SDS011;42008;52.934;5.884;2023-02-15T08:01:38;187.43;;;85.97;;
56136;SDS011;42008;52.934;5.884;2023-02-15T08:04:05;186.57;;;85.17;;
56136;SDS011;42008;52.934;5.884;2023-02-15T08:06:33;183.77;;;86.30;;
56136;SDS011;42008;52.934;5.884;2023-02-15T08:09:00;178.27;;;83.87;;
56136;SDS011;42008;52.934;5.884;2023-02-15T08:11:33;171.40;;;81.22;;
56136;SDS011;42008;52.934;5.884;2023-02-15T08:16:41;162.63;;;79.13;;
56136;SDS011;42008;52.934;5.884;2023-02-15T08:21:48;151.30;;;72.87;;
56136;SDS011;42008;52.934;5.884;2023-02-15T08:24:17;156.10;;;72.43;;
56136;SDS011;42008;52.934;5.884;2023-02-15T08:26:44;133.17;;;66.33;;
56136;SDS011;42008;52.934;5.884;2023-02-15T08:29:12;141.10;;;68.20;;
56136;SDS011;42008;52.934;5.884;2023-02-15T08:31:42;132.10;;;66.33;;
56136;SDS011;42008;52.934;5.884;2023-02-15T08:34:09;129.53;;;61.10;;
56136;SDS011;42008;52.934;5.884;2023-02-15T08:36:36;137.67;;;64.47;;
56136;SDS011;42008;52.934;5.884;2023-02-15T08:39:03;131.17;;;64.53;;
56136;SDS011;42008;52.934;5.884;2023-02-15T08:41:31;135.83;;;66.23;;
56136;SDS011;42008;52.934;5.884;2023-02-15T08:43:59;129.53;;;66.93;;
56136;SDS011;42008;52.934;5.884;2023-02-15T08:46:27;135.80;;;68.67;;
56136;SDS011;42008;52.934;5.884;2023-02-15T08:48:54;139.57;;;69.27;;
56136;SDS011;42008;52.934;5.884;2023-02-15T08:51:21;138.40;;;70.87;;
56136;SDS011;42008;52.934;5.884;2023-02-15T08:53:49;143.87;;;75.70;;
56136;SDS011;42008;52.934;5.884;2023-02-15T08:56:18;161.23;;;81.20;;
56136;SDS011;42008;52.934;5.884;2023-02-15T08:58:45;152.80;;;78.70;;
56136;SDS011;42008;52.934;5.884;2023-02-15T09:01:11;151.17;;;75.67;;
56136;SDS011;42008;52.934;5.884;2023-02-15T09:03:48;143.37;;;74.60;;
56136;SDS011;42008;52.934;5.884;2023-02-15T09:06:17;141.13;;;73.80;;
56136;SDS011;42008;52.934;5.884;2023-02-15T09:08:43;142.00;;;75.67;;
56136;SDS011;42008;52.934;5.884;2023-02-15T09:11:10;125.10;;;65.00;;
56136;SDS011;42008;52.934;5.884;2023-02-15T09:13:38;118.10;;;65.27;;
56136;SDS011;42008;52.934;5.884;2023-02-15T09:16:05;116.03;;;62.37;;
56136;SDS011;42008;52.934;5.884;2023-02-15T09:18:34;116.03;;;62.97;;
56136;SDS011;42008;52.934;5.884;2023-02-15T09:21:12;113.97;;;63.03;;
56136;SDS011;42008;52.934;5.884;2023-02-15T09:23:40;107.93;;;61.67;;
56136;SDS011;42008;52.934;5.884;2023-02-15T09:26:07;110.17;;;62.80;;
56136;SDS011;42008;52.934;5.884;2023-02-15T09:28:35;109.10;;;60.47;;
56136;SDS011;42008;52.934;5.884;2023-02-15T09:31:11;112.30;;;59.73;;
56136;SDS011;42008;52.934;5.884;2023-02-15T09:33:41;112.73;;;62.00;;
56136;SDS011;42008;52.934;5.884;2023-02-15T09:36:15;111.43;;;61.37;;
56136;SDS011;42008;52.934;5.884;2023-02-15T09:38:46;106.70;;;59.10;;
56136;SDS011;42008;52.934;5.884;2023-02-15T10:03:54;114.80;;;64.13;;
56136;SDS011;42008;52.934;5.884;2023-02-15T10:06:32;127.33;;;66.20;;
56136;SDS011;42008;52.934;5.884;2023-02-15T10:09:46;119.23;;;62.97;;
56136;SDS011;42008;52.934;5.884;2023-02-15T10:28:51;74.80;;;45.90;;
56136;SDS011;42008;52.934;5.884;2023-02-15T10:31:27;79.30;;;47.53;;
56136;SDS011;42008;52.934;5.884;2023-02-15T10:34:10;76.00;;;47.57;;
56136;SDS011;42008;52.934;5.884;2023-02-15T10:42:16;76.13;;;45.53;;
56136;SDS011;42008;52.934;5.884;2023-02-15T10:45:13;77.03;;;46.70;;
56136;SDS011;42008;52.934;5.884;2023-02-15T10:51:08;73.95;;;44.58;;
56136;SDS011;42008;52.934;5.884;2023-02-15T10:56:34;69.20;;;41.43;;
56136;SDS011;42008;52.934;5.884;2023-02-15T10:59:23;66.13;;;42.07;;
56136;SDS011;42008;52.934;5.884;2023-02-15T11:02:37;65.63;;;40.33;;
56136;SDS011;42008;52.934;5.884;2023-02-15T11:05:33;66.40;;;42.23;;
56136;SDS011;42008;52.934;5.884;2023-02-15T11:08:07;68.90;;;42.07;;
56136;SDS011;42008;52.934;5.884;2023-02-15T11:10:36;63.83;;;40.50;;
56136;SDS011;42008;52.934;5.884;2023-02-15T11:13:04;60.50;;;39.33;;
56136;SDS011;42008;52.934;5.884;2023-02-15T11:15:36;60.83;;;40.08;;
56136;SDS011;42008;52.934;5.884;2023-02-15T11:18:14;64.33;;;40.13;;
56136;SDS011;42008;52.934;5.884;2023-02-15T11:20:54;65.17;;;38.93;;
56136;SDS011;42008;52.934;5.884;2023-02-15T11:23:24;61.67;;;40.80;;
56136;SDS011;42008;52.934;5.884;2023-02-15T11:25:53;63.93;;;39.87;;
56136;SDS011;42008;52.934;5.884;2023-02-15T11:28:24;61.00;;;36.20;;
56136;SDS011;42008;52.934;5.884;2023-02-15T11:30:56;66.20;;;41.23;;
56136;SDS011;42008;52.934;5.884;2023-02-15T11:33:27;62.77;;;40.03;;
56136;SDS011;42008;52.934;5.884;2023-02-15T11:35:58;57.07;;;35.53;;
56136;SDS011;42008;52.934;5.884;2023-02-15T11:38:29;61.47;;;36.83;;
56136;SDS011;42008;52.934;5.884;2023-02-15T11:41:05;54.70;;;34.17;;
56136;SDS011;42008;52.934;5.884;2023-02-15T11:46:13;57.60;;;33.50;;
56136;SDS011;42008;52.934;5.884;2023-02-15T11:48:39;50.87;;;32.87;;
56136;SDS011;42008;52.934;5.884;2023-02-15T11:51:08;50.87;;;31.13;;
56136;SDS011;42008;52.934;5.884;2023-02-15T11:53:39;48.00;;;31.87;;
56136;SDS011;42008;52.934;5.884;2023-02-15T11:56:04;50.30;;;32.37;;
56136;SDS011;42008;52.934;5.884;2023-02-15T11:58:38;46.37;;;30.50;;
56136;SDS011;42008;52.934;5.884;2023-02-15T12:01:15;44.40;;;29.73;;
56136;SDS011;42008;52.934;5.884;2023-02-15T12:03:55;49.83;;;30.27;;
56136;SDS011;42008;52.934;5.884;2023-02-15T12:06:30;49.83;;;31.50;;
56136;SDS011;42008;52.934;5.884;2023-02-15T12:09:03;50.60;;;30.00;;
56136;SDS011;42008;52.934;5.884;2023-02-15T12:11:49;44.30;;;28.83;;
56136;SDS011;42008;52.934;5.884;2023-02-15T12:14:14;43.83;;;29.20;;
56136;SDS011;42008;52.934;5.884;2023-02-15T12:19:29;44.57;;;28.23;;
56136;SDS011;42008;52.934;5.884;2023-02-15T12:21:58;47.23;;;29.30;;
56136;SDS011;42008;52.934;5.884;2023-02-15T12:24:38;49.73;;;29.63;;
56136;SDS011;42008;52.934;5.884;2023-02-15T12:27:15;50.27;;;30.07;;
56136;SDS011;42008;52.934;5.884;2023-02-15T12:29:54;45.43;;;30.03;;
56136;SDS011;42008;52.934;5.884;2023-02-15T12:32:25;48.73;;;30.07;;
56136;SDS011;42008;52.934;5.884;2023-02-15T12:35:02;47.30;;;28.93;;
56136;SDS011;42008;52.934;5.884;2023-02-15T12:37:39;49.50;;;29.43;;
56136;SDS011;42008;52.934;5.884;2023-02-15T12:40:28;50.47;;;31.03;;
56136;SDS011;42008;52.934;5.884;2023-02-15T12:42:54;49.70;;;30.73;;
56136;SDS011;42008;52.934;5.884;2023-02-15T12:48:36;47.03;;;29.67;;
56136;SDS011;42008;52.934;5.884;2023-02-15T12:50:37;46.40;;;27.93;;
56136;SDS011;42008;52.934;5.884;2023-02-15T12:53:14;47.40;;;28.90;;
56136;SDS011;42008;52.934;5.884;2023-02-15T12:55:49;48.37;;;28.90;;
56136;SDS011;42008;52.934;5.884;2023-02-15T12:58:38;43.37;;;29.30;;
56136;SDS011;42008;52.934;5.884;2023-02-15T13:03:34;47.00;;;29.63;;
56136;SDS011;42008;52.934;5.884;2023-02-15T13:06:02;49.83;;;30.03;;
56136;SDS011;42008;52.934;5.884;2023-02-15T13:08:34;45.47;;;28.93;;
56136;SDS011;42008;52.934;5.884;2023-02-15T13:11:14;46.00;;;28.57;;
56136;SDS011;42008;52.934;5.884;2023-02-15T13:14:00;48.93;;;30.23;;
56136;SDS011;42008;52.934;5.884;2023-02-15T13:16:32;48.23;;;29.47;;
56136;SDS011;42008;52.934;5.884;2023-02-15T13:19:06;47.70;;;30.33;;
56136;SDS011;42008;52.934;5.884;2023-02-15T13:21:40;48.87;;;30.77;;
56136;SDS011;42008;52.934;5.884;2023-02-15T13:27:10;45.87;;;30.23;;
56136;SDS011;42008;52.934;5.884;2023-02-15T13:29:41;49.63;;;30.73;;
56136;SDS011;42008;52.934;5.884;2023-02-15T13:34:56;45.37;;;29.20;;
56136;SDS011;42008;52.934;5.884;2023-02-15T13:42:54;49.50;;;30.07;;
56136;SDS011;42008;52.934;5.884;2023-02-15T13:50:43;48.97;;;31.03;;
56136;SDS011;42008;52.934;5.884;2023-02-15T13:59:07;45.63;;;28.87;;
56136;SDS011;42008;52.934;5.884;2023-02-15T14:07:38;46.67;;;29.70;;
56136;SDS011;42008;52.934;5.884;2023-02-15T14:10:43;50.93;;;30.97;;
56136;SDS011;42008;52.934;5.884;2023-02-15T14:16:12;50.57;;;32.33;;
56136;SDS011;42008;52.934;5.884;2023-02-15T14:19:11;51.67;;;31.97;;
56136;SDS011;42008;52.934;5.884;2023-02-15T14:21:49;55.73;;;32.43;;
56136;SDS011;42008;52.934;5.884;2023-02-15T14:29:57;51.73;;;30.93;;
56136;SDS011;42008;52.934;5.884;2023-02-15T14:35:19;49.13;;;30.87;;
56136;SDS011;42008;52.934;5.884;2023-02-15T14:37:54;47.77;;;29.83;;
56136;SDS011;42008;52.934;5.884;2023-02-15T14:46:16;45.27;;;30.53;;
56136;SDS011;42008;52.934;5.884;2023-02-15T14:48:52;48.47;;;31.87;;
56136;SDS011;42008;52.934;5.884;2023-02-15T14:54:03;45.73;;;29.07;;
56136;SDS011;42008;52.934;5.884;2023-02-15T14:56:29;50.53;;;31.03;;
56136;SDS011;42008;52.934;5.884;2023-02-15T15:01:28;48.70;;;29.97;;
56136;SDS011;42008;52.934;5.884;2023-02-15T15:04:21;45.07;;;30.27;;
56136;SDS011;42008;52.934;5.884;2023-02-15T15:09:38;51.27;;;31.97;;
56136;SDS011;42008;52.934;5.884;2023-02-15T15:12:35;51.22;;;31.35;;
56136;SDS011;42008;52.934;5.884;2023-02-15T15:15:02;50.70;;;32.40;;
56136;SDS011;42008;52.934;5.884;2023-02-15T15:20:14;51.73;;;31.80;;
56136;SDS011;42008;52.934;5.884;2023-02-15T15:25:46;52.20;;;32.93;;
56136;SDS011;42008;52.934;5.884;2023-02-15T15:50:52;51.53;;;35.27;;
56136;SDS011;42008;52.934;5.884;2023-02-15T15:53:22;54.33;;;35.53;;
56136;SDS011;42008;52.934;5.884;2023-02-15T15:55:50;56.53;;;35.63;;
56136;SDS011;42008;52.934;5.884;2023-02-15T15:58:20;58.03;;;35.37;;
56136;SDS011;42008;52.934;5.884;2023-02-15T16:00:47;58.23;;;34.57;;
56136;SDS011;42008;52.934;5.884;2023-02-15T16:03:23;54.43;;;35.40;;
56136;SDS011;42008;52.934;5.884;2023-02-15T16:05:50;58.00;;;35.57;;
56136;SDS011;42008;52.934;5.884;2023-02-15T16:08:33;64.67;;;36.03;;
56136;SDS011;42008;52.934;5.884;2023-02-15T16:11:07;58.00;;;35.90;;
56136;SDS011;42008;52.934;5.884;2023-02-15T16:13:41;59.50;;;36.13;;
56136;SDS011;42008;52.934;5.884;2023-02-15T16:16:08;68.43;;;38.90;;
56136;SDS011;42008;52.934;5.884;2023-02-15T16:18:36;60.80;;;38.00;;
56136;SDS011;42008;52.934;5.884;2023-02-15T16:21:03;56.83;;;36.23;;
56136;SDS011;42008;52.934;5.884;2023-02-15T16:28:59;62.47;;;38.17;;
56136;SDS011;42008;52.934;5.884;2023-02-15T16:31:26;65.53;;;38.43;;
56136;SDS011;42008;52.934;5.884;2023-02-15T16:33:55;64.93;;;38.30;;
56136;SDS011;42008;52.934;5.884;2023-02-15T16:36:21;59.33;;;38.93;;
56136;SDS011;42008;52.934;5.884;2023-02-15T16:41:17;58.77;;;36.70;;
56136;SDS011;42008;52.934;5.884;2023-02-15T16:43:50;62.23;;;37.77;;
56136;SDS011;42008;52.934;5.884;2023-02-15T16:46:32;65.23;;;38.40;;
56136;SDS011;42008;52.934;5.884;2023-02-15T16:49:02;68.25;;;38.20;;
56136;SDS011;42008;52.934;5.884;2023-02-15T16:51:33;67.50;;;39.80;;
56136;SDS011;42008;52.934;5.884;2023-02-15T16:54:03;67.10;;;40.03;;
56136;SDS011;42008;52.934;5.884;2023-02-15T16:56:32;63.83;;;37.63;;
56136;SDS011;42008;52.934;5.884;2023-02-15T16:58:59;67.57;;;41.33;;
56136;SDS011;42008;52.934;5.884;2023-02-15T17:01:27;62.83;;;40.03;;
56136;SDS011;42008;52.934;5.884;2023-02-15T17:04:23;66.37;;;40.63;;
56136;SDS011;42008;52.934;5.884;2023-02-15T17:09:29;63.23;;;39.83;;
56136;SDS011;42008;52.934;5.884;2023-02-15T17:11:55;63.87;;;40.80;;
56136;SDS011;42008;52.934;5.884;2023-02-15T17:14:32;69.07;;;40.83;;
56136;SDS011;42008;52.934;5.884;2023-02-15T17:17:07;66.47;;;42.77;;
56136;SDS011;42008;52.934;5.884;2023-02-15T17:19:51;75.30;;;44.37;;
56136;SDS011;42008;52.934;5.884;2023-02-15T17:22:23;77.17;;;44.80;;
56136;SDS011;42008;52.934;5.884;2023-02-15T17:24:57;77.00;;;44.63;;
56136;SDS011;42008;52.934;5.884;2023-02-15T17:27:26;72.17;;;44.67;;
56136;SDS011;42008;52.934;5.884;2023-02-15T17:30:04;72.20;;;45.80;;
56136;SDS011;42008;52.934;5.884;2023-02-15T17:32:42;76.57;;;48.23;;
56136;SDS011;42008;52.934;5.884;2023-02-15T17:35:31;77.03;;;48.43;;
56136;SDS011;42008;52.934;5.884;2023-02-15T17:40:43;77.57;;;46.10;;
56136;SDS011;42008;52.934;5.884;2023-02-15T17:43:08;73.87;;;46.10;;